Terminal Aerodrome Forecast
Issued by NWS Tallahassee, FL

Home | Current Version | Previous Version | Text Only | Print | Product List | Glossary On
Versions: 1 2 3 4 5 6 7 8 9 10 11 12 13 14 15 16 17 18
000
FTUS42 KTAE 311409 AAA
TAFTLH
TAF AMD
KTLH 311409Z 3114/0112 VRB03KT P6SM SCT025
     FM311600 18008KT P6SM VCTS BKN035CB
      TEMPO 3118/3122 VRB15G25KT 3SM TSRA BR BKN030CB
     FM010100 14003KT P6SM SCT030 BKN100=

USA.gov is the U.S. government's official web portal to all federal, state and local government web resources and services.